Terminal Aerodrome Forecast
Issued by NWS Northern Indiana

Home | Current Version | Previous Version | Graphics & Text | Print | Product List | Glossary On
Versions: 1 2 3 4 5 6 7 8 9 10 11 12 13 14 15 16 17 18
636
FTUS43 KIWX 202324
TAFFWA
TAF
KFWA 202324Z 2100/2124 24005KT P6SM SCT015 OVC022
      TEMPO 2100/2103 6SM -DZ BR OVC015
     FM210300 18004KT 3SM BR OVC009
     FM211400 17006KT 5SM BR OVC015
     FM211600 17008KT P6SM BKN025=

USA.gov is the U.S. government's official web portal to all federal, state and local government web resources and services.